sensor_id;sensor_type;location;lat;lon;timestamp;P1;durP1;ratioP1;P2;durP2;ratioP2
13114;SDS011;6623;52.120;8.660;2022-12-22T00:02:32;7.53;;;6.17;;
13114;SDS011;6623;52.120;8.660;2022-12-22T00:05:18;6.57;;;5.87;;
13114;SDS011;6623;52.120;8.660;2022-12-22T00:08:03;8.27;;;5.90;;
13114;SDS011;6623;52.120;8.660;2022-12-22T00:10:48;7.00;;;5.97;;
13114;SDS011;6623;52.120;8.660;2022-12-22T00:13:32;6.07;;;5.50;;
13114;SDS011;6623;52.120;8.660;2022-12-22T00:16:17;7.60;;;5.73;;
13114;SDS011;6623;52.120;8.660;2022-12-22T00:19:02;7.17;;;5.50;;
13114;SDS011;6623;52.120;8.660;2022-12-22T00:21:53;6.17;;;5.57;;
13114;SDS011;6623;52.120;8.660;2022-12-22T00:24:38;7.50;;;6.00;;
13114;SDS011;6623;52.120;8.660;2022-12-22T00:27:26;7.27;;;6.57;;
13114;SDS011;6623;52.120;8.660;2022-12-22T00:30:13;8.53;;;6.20;;
13114;SDS011;6623;52.120;8.660;2022-12-22T00:32:58;10.40;;;6.57;;
13114;SDS011;6623;52.120;8.660;2022-12-22T00:35:44;5.83;;;5.30;;
13114;SDS011;6623;52.120;8.660;2022-12-22T00:38:28;7.70;;;6.30;;
13114;SDS011;6623;52.120;8.660;2022-12-22T00:41:13;7.30;;;6.10;;
13114;SDS011;6623;52.120;8.660;2022-12-22T00:43:57;6.13;;;5.63;;
13114;SDS011;6623;52.120;8.660;2022-12-22T00:46:41;6.17;;;5.67;;
13114;SDS011;6623;52.120;8.660;2022-12-22T00:49:26;7.73;;;5.63;;
13114;SDS011;6623;52.120;8.660;2022-12-22T00:52:13;6.60;;;5.43;;
13114;SDS011;6623;52.120;8.660;2022-12-22T00:54:58;6.10;;;5.60;;
13114;SDS011;6623;52.120;8.660;2022-12-22T00:57:46;6.00;;;5.40;;
13114;SDS011;6623;52.120;8.660;2022-12-22T01:00:34;5.63;;;5.00;;
13114;SDS011;6623;52.120;8.660;2022-12-22T01:03:18;6.17;;;5.53;;
13114;SDS011;6623;52.120;8.660;2022-12-22T01:06:02;6.07;;;5.47;;
13114;SDS011;6623;52.120;8.660;2022-12-22T01:08:46;7.17;;;6.50;;
13114;SDS011;6623;52.120;8.660;2022-12-22T01:11:32;7.87;;;6.80;;
13114;SDS011;6623;52.120;8.660;2022-12-22T01:14:17;7.17;;;6.30;;
13114;SDS011;6623;52.120;8.660;2022-12-22T01:17:02;6.57;;;5.97;;
13114;SDS011;6623;52.120;8.660;2022-12-22T01:19:46;7.53;;;6.60;;
13114;SDS011;6623;52.120;8.660;2022-12-22T01:22:30;7.80;;;7.00;;
13114;SDS011;6623;52.120;8.660;2022-12-22T01:25:15;6.03;;;5.33;;
13114;SDS011;6623;52.120;8.660;2022-12-22T01:28:01;6.77;;;5.53;;
13114;SDS011;6623;52.120;8.660;2022-12-22T01:30:45;5.40;;;4.90;;
13114;SDS011;6623;52.120;8.660;2022-12-22T01:33:29;6.53;;;5.40;;
13114;SDS011;6623;52.120;8.660;2022-12-22T01:36:13;5.80;;;5.30;;
13114;SDS011;6623;52.120;8.660;2022-12-22T01:38:58;6.23;;;5.40;;
13114;SDS011;6623;52.120;8.660;2022-12-22T01:41:42;5.83;;;4.50;;
13114;SDS011;6623;52.120;8.660;2022-12-22T01:44:26;5.43;;;4.93;;
13114;SDS011;6623;52.120;8.660;2022-12-22T01:50:32;5.37;;;4.80;;
13114;SDS011;6623;52.120;8.660;2022-12-22T01:53:17;4.93;;;4.30;;
13114;SDS011;6623;52.120;8.660;2022-12-22T01:56:03;6.13;;;4.50;;
13114;SDS011;6623;52.120;8.660;2022-12-22T01:58:50;5.33;;;4.17;;
13114;SDS011;6623;52.120;8.660;2022-12-22T02:01:38;6.17;;;4.37;;
13114;SDS011;6623;52.120;8.660;2022-12-22T02:04:24;5.07;;;4.57;;
13114;SDS011;6623;52.120;8.660;2022-12-22T02:07:39;4.87;;;4.30;;
13114;SDS011;6623;52.120;8.660;2022-12-22T02:10:38;4.70;;;4.30;;
13114;SDS011;6623;52.120;8.660;2022-12-22T02:16:54;4.90;;;4.03;;
13114;SDS011;6623;52.120;8.660;2022-12-22T02:19:58;4.77;;;4.13;;
13114;SDS011;6623;52.120;8.660;2022-12-22T02:23:00;4.77;;;4.27;;
13114;SDS011;6623;52.120;8.660;2022-12-22T02:26:02;5.97;;;4.20;;
13114;SDS011;6623;52.120;8.660;2022-12-22T02:29:08;5.60;;;5.10;;
13114;SDS011;6623;52.120;8.660;2022-12-22T02:31:55;5.70;;;5.20;;
13114;SDS011;6623;52.120;8.660;2022-12-22T02:34:39;6.93;;;6.23;;
13114;SDS011;6623;52.120;8.660;2022-12-22T02:37:29;6.00;;;5.40;;
13114;SDS011;6623;52.120;8.660;2022-12-22T02:43:41;6.47;;;5.80;;
13114;SDS011;6623;52.120;8.660;2022-12-22T02:46:40;6.03;;;5.43;;
13114;SDS011;6623;52.120;8.660;2022-12-22T02:49:40;6.00;;;5.20;;
13114;SDS011;6623;52.120;8.660;2022-12-22T02:52:38;8.07;;;5.83;;
13114;SDS011;6623;52.120;8.660;2022-12-22T02:55:25;7.17;;;6.10;;
13114;SDS011;6623;52.120;8.660;2022-12-22T02:58:11;7.87;;;5.60;;
13114;SDS011;6623;52.120;8.660;2022-12-22T03:00:55;5.80;;;5.13;;
13114;SDS011;6623;52.120;8.660;2022-12-22T03:03:39;6.73;;;5.80;;
13114;SDS011;6623;52.120;8.660;2022-12-22T03:06:23;8.40;;;6.23;;
13114;SDS011;6623;52.120;8.660;2022-12-22T03:09:07;6.57;;;5.83;;
13114;SDS011;6623;52.120;8.660;2022-12-22T03:11:51;7.17;;;6.47;;
13114;SDS011;6623;52.120;8.660;2022-12-22T03:14:36;8.53;;;7.10;;
13114;SDS011;6623;52.120;8.660;2022-12-22T03:17:20;7.77;;;6.57;;
13114;SDS011;6623;52.120;8.660;2022-12-22T03:20:04;5.93;;;5.43;;
13114;SDS011;6623;52.120;8.660;2022-12-22T03:22:48;6.53;;;5.80;;
13114;SDS011;6623;52.120;8.660;2022-12-22T03:25:32;6.27;;;5.43;;
13114;SDS011;6623;52.120;8.660;2022-12-22T03:28:16;7.40;;;5.30;;
13114;SDS011;6623;52.120;8.660;2022-12-22T03:30:42;5.70;;;5.03;;
13114;SDS011;6623;52.120;8.660;2022-12-22T03:33:08;6.10;;;5.50;;
13114;SDS011;6623;52.120;8.660;2022-12-22T03:35:33;6.77;;;6.10;;
13114;SDS011;6623;52.120;8.660;2022-12-22T03:37:59;6.60;;;5.80;;
13114;SDS011;6623;52.120;8.660;2022-12-22T03:40:27;6.77;;;6.17;;
13114;SDS011;6623;52.120;8.660;2022-12-22T03:42:54;7.00;;;6.10;;
13114;SDS011;6623;52.120;8.660;2022-12-22T03:45:38;6.97;;;6.27;;
13114;SDS011;6623;52.120;8.660;2022-12-22T03:48:22;6.30;;;5.70;;
13114;SDS011;6623;52.120;8.660;2022-12-22T03:50:47;5.77;;;5.27;;
13114;SDS011;6623;52.120;8.660;2022-12-22T03:53:13;5.97;;;5.47;;
13114;SDS011;6623;52.120;8.660;2022-12-22T03:55:38;5.93;;;5.33;;
13114;SDS011;6623;52.120;8.660;2022-12-22T03:58:04;5.70;;;5.13;;
13114;SDS011;6623;52.120;8.660;2022-12-22T04:00:29;6.70;;;5.30;;
13114;SDS011;6623;52.120;8.660;2022-12-22T04:02:56;5.33;;;4.83;;
13114;SDS011;6623;52.120;8.660;2022-12-22T04:05:22;6.03;;;5.43;;
13114;SDS011;6623;52.120;8.660;2022-12-22T04:07:48;5.57;;;4.97;;
13114;SDS011;6623;52.120;8.660;2022-12-22T04:10:14;5.57;;;5.07;;
13114;SDS011;6623;52.120;8.660;2022-12-22T04:12:58;5.67;;;5.07;;
13114;SDS011;6623;52.120;8.660;2022-12-22T04:15:25;6.83;;;5.07;;
13114;SDS011;6623;52.120;8.660;2022-12-22T04:17:52;5.97;;;5.37;;
13114;SDS011;6623;52.120;8.660;2022-12-22T04:20:18;6.40;;;5.77;;
13114;SDS011;6623;52.120;8.660;2022-12-22T04:22:45;7.13;;;5.53;;
13114;SDS011;6623;52.120;8.660;2022-12-22T04:25:12;8.57;;;5.13;;
13114;SDS011;6623;52.120;8.660;2022-12-22T04:27:38;5.07;;;4.57;;
13114;SDS011;6623;52.120;8.660;2022-12-22T04:30:04;4.73;;;4.33;;
13114;SDS011;6623;52.120;8.660;2022-12-22T04:32:30;5.20;;;4.70;;
13114;SDS011;6623;52.120;8.660;2022-12-22T04:34:56;6.53;;;5.37;;
13114;SDS011;6623;52.120;8.660;2022-12-22T04:37:22;5.80;;;5.20;;
13114;SDS011;6623;52.120;8.660;2022-12-22T04:39:47;6.23;;;5.50;;
13114;SDS011;6623;52.120;8.660;2022-12-22T04:42:13;6.37;;;5.53;;
13114;SDS011;6623;52.120;8.660;2022-12-22T04:44:38;5.97;;;5.00;;
13114;SDS011;6623;52.120;8.660;2022-12-22T04:47:04;5.73;;;5.23;;
13114;SDS011;6623;52.120;8.660;2022-12-22T04:49:29;5.70;;;5.10;;
13114;SDS011;6623;52.120;8.660;2022-12-22T04:51:55;8.60;;;5.40;;
13114;SDS011;6623;52.120;8.660;2022-12-22T04:54:20;6.63;;;5.93;;
13114;SDS011;6623;52.120;8.660;2022-12-22T04:56:46;6.37;;;5.13;;
13114;SDS011;6623;52.120;8.660;2022-12-22T04:59:11;6.00;;;5.40;;
13114;SDS011;6623;52.120;8.660;2022-12-22T05:01:37;6.40;;;5.60;;
13114;SDS011;6623;52.120;8.660;2022-12-22T05:04:02;6.00;;;5.40;;
13114;SDS011;6623;52.120;8.660;2022-12-22T05:06:28;7.27;;;5.57;;
13114;SDS011;6623;52.120;8.660;2022-12-22T05:08:53;9.60;;;5.50;;
13114;SDS011;6623;52.120;8.660;2022-12-22T05:11:19;6.23;;;5.63;;
13114;SDS011;6623;52.120;8.660;2022-12-22T05:13:45;6.90;;;5.70;;
13114;SDS011;6623;52.120;8.660;2022-12-22T05:16:11;6.10;;;5.37;;
13114;SDS011;6623;52.120;8.660;2022-12-22T05:18:39;9.77;;;5.93;;
13114;SDS011;6623;52.120;8.660;2022-12-22T05:21:10;8.63;;;6.20;;
13114;SDS011;6623;52.120;8.660;2022-12-22T05:23:36;8.20;;;7.00;;
13114;SDS011;6623;52.120;8.660;2022-12-22T05:26:02;8.10;;;6.53;;
13114;SDS011;6623;52.120;8.660;2022-12-22T05:28:28;8.27;;;7.13;;
13114;SDS011;6623;52.120;8.660;2022-12-22T05:30:53;10.27;;;7.13;;
13114;SDS011;6623;52.120;8.660;2022-12-22T05:33:19;10.13;;;7.90;;
13114;SDS011;6623;52.120;8.660;2022-12-22T05:35:45;9.93;;;7.27;;
13114;SDS011;6623;52.120;8.660;2022-12-22T05:38:10;9.57;;;7.70;;
13114;SDS011;6623;52.120;8.660;2022-12-22T05:40:36;13.97;;;8.47;;
13114;SDS011;6623;52.120;8.660;2022-12-22T05:43:01;11.23;;;8.63;;
13114;SDS011;6623;52.120;8.660;2022-12-22T05:45:27;11.43;;;8.70;;
13114;SDS011;6623;52.120;8.660;2022-12-22T05:47:53;11.57;;;9.30;;
13114;SDS011;6623;52.120;8.660;2022-12-22T05:50:20;12.47;;;8.90;;
13114;SDS011;6623;52.120;8.660;2022-12-22T05:52:47;13.70;;;9.67;;
13114;SDS011;6623;52.120;8.660;2022-12-22T05:55:13;12.30;;;8.90;;
13114;SDS011;6623;52.120;8.660;2022-12-22T05:57:39;12.70;;;9.57;;
13114;SDS011;6623;52.120;8.660;2022-12-22T06:00:10;12.23;;;9.67;;
13114;SDS011;6623;52.120;8.660;2022-12-22T06:02:37;12.90;;;9.33;;
13114;SDS011;6623;52.120;8.660;2022-12-22T06:05:03;18.07;;;11.13;;
13114;SDS011;6623;52.120;8.660;2022-12-22T06:07:30;12.37;;;9.67;;
13114;SDS011;6623;52.120;8.660;2022-12-22T06:09:55;16.07;;;10.37;;
13114;SDS011;6623;52.120;8.660;2022-12-22T06:12:21;12.83;;;10.10;;
13114;SDS011;6623;52.120;8.660;2022-12-22T06:14:46;13.80;;;9.97;;
13114;SDS011;6623;52.120;8.660;2022-12-22T06:17:15;14.23;;;10.17;;
13114;SDS011;6623;52.120;8.660;2022-12-22T06:19:40;14.90;;;10.30;;
13114;SDS011;6623;52.120;8.660;2022-12-22T06:22:06;14.30;;;11.07;;
13114;SDS011;6623;52.120;8.660;2022-12-22T06:24:31;13.90;;;10.50;;
13114;SDS011;6623;52.120;8.660;2022-12-22T06:26:57;11.77;;;9.67;;
13114;SDS011;6623;52.120;8.660;2022-12-22T06:29:22;13.00;;;9.67;;
13114;SDS011;6623;52.120;8.660;2022-12-22T06:31:51;13.53;;;10.03;;
13114;SDS011;6623;52.120;8.660;2022-12-22T06:34:16;13.43;;;10.53;;
13114;SDS011;6623;52.120;8.660;2022-12-22T06:36:45;12.63;;;9.90;;
13114;SDS011;6623;52.120;8.660;2022-12-22T06:39:12;12.40;;;10.00;;
13114;SDS011;6623;52.120;8.660;2022-12-22T06:41:39;13.50;;;10.17;;
13114;SDS011;6623;52.120;8.660;2022-12-22T06:44:23;11.87;;;10.03;;
13114;SDS011;6623;52.120;8.660;2022-12-22T06:46:49;12.13;;;9.80;;
13114;SDS011;6623;52.120;8.660;2022-12-22T06:49:15;12.17;;;9.67;;
13114;SDS011;6623;52.120;8.660;2022-12-22T06:51:40;11.80;;;10.00;;
13114;SDS011;6623;52.120;8.660;2022-12-22T06:54:06;11.50;;;9.83;;
13114;SDS011;6623;52.120;8.660;2022-12-22T06:56:31;13.60;;;10.17;;
13114;SDS011;6623;52.120;8.660;2022-12-22T06:58:57;13.23;;;9.73;;
13114;SDS011;6623;52.120;8.660;2022-12-22T07:01:22;11.20;;;9.67;;
13114;SDS011;6623;52.120;8.660;2022-12-22T07:03:48;13.80;;;10.03;;
13114;SDS011;6623;52.120;8.660;2022-12-22T07:06:14;11.03;;;8.97;;
13114;SDS011;6623;52.120;8.660;2022-12-22T07:08:42;15.10;;;9.83;;
13114;SDS011;6623;52.120;8.660;2022-12-22T07:11:11;11.93;;;9.67;;
13114;SDS011;6623;52.120;8.660;2022-12-22T07:13:38;13.40;;;10.23;;
13114;SDS011;6623;52.120;8.660;2022-12-22T07:16:04;13.33;;;9.80;;
13114;SDS011;6623;52.120;8.660;2022-12-22T07:18:33;12.80;;;9.83;;
13114;SDS011;6623;52.120;8.660;2022-12-22T07:21:01;11.60;;;9.87;;
13114;SDS011;6623;52.120;8.660;2022-12-22T07:25:30;11.47;;;9.83;;
13114;SDS011;6623;52.120;8.660;2022-12-22T07:27:55;12.43;;;9.90;;
13114;SDS011;6623;52.120;8.660;2022-12-22T07:30:21;15.30;;;10.23;;
13114;SDS011;6623;52.120;8.660;2022-12-22T07:32:46;14.47;;;10.47;;
13114;SDS011;6623;52.120;8.660;2022-12-22T07:35:12;11.70;;;9.77;;
13114;SDS011;6623;52.120;8.660;2022-12-22T07:37:37;12.20;;;10.00;;
13114;SDS011;6623;52.120;8.660;2022-12-22T07:40:03;14.33;;;10.70;;
13114;SDS011;6623;52.120;8.660;2022-12-22T07:42:29;12.77;;;10.30;;
13114;SDS011;6623;52.120;8.660;2022-12-22T07:45:18;12.77;;;9.90;;
13114;SDS011;6623;52.120;8.660;2022-12-22T07:47:45;13.03;;;10.40;;
13114;SDS011;6623;52.120;8.660;2022-12-22T07:50:12;12.83;;;10.20;;
13114;SDS011;6623;52.120;8.660;2022-12-22T07:52:51;13.50;;;10.63;;
13114;SDS011;6623;52.120;8.660;2022-12-22T07:55:18;12.80;;;10.40;;
13114;SDS011;6623;52.120;8.660;2022-12-22T07:57:44;20.63;;;11.30;;
13114;SDS011;6623;52.120;8.660;2022-12-22T08:00:10;14.47;;;10.70;;
13114;SDS011;6623;52.120;8.660;2022-12-22T08:02:36;13.13;;;10.60;;
13114;SDS011;6623;52.120;8.660;2022-12-22T08:05:02;14.90;;;10.40;;
13114;SDS011;6623;52.120;8.660;2022-12-22T08:07:28;11.60;;;9.70;;
13114;SDS011;6623;52.120;8.660;2022-12-22T08:13:13;12.43;;;9.80;;
13114;SDS011;6623;52.120;8.660;2022-12-22T08:15:38;13.60;;;10.00;;
13114;SDS011;6623;52.120;8.660;2022-12-22T08:18:04;13.43;;;9.93;;
13114;SDS011;6623;52.120;8.660;2022-12-22T08:20:29;13.17;;;10.00;;
13114;SDS011;6623;52.120;8.660;2022-12-22T08:22:55;13.53;;;10.43;;
13114;SDS011;6623;52.120;8.660;2022-12-22T08:25:21;14.97;;;10.40;;
13114;SDS011;6623;52.120;8.660;2022-12-22T08:27:47;14.97;;;10.13;;
13114;SDS011;6623;52.120;8.660;2022-12-22T08:30:17;13.83;;;10.03;;
13114;SDS011;6623;52.120;8.660;2022-12-22T08:32:43;15.27;;;11.00;;
13114;SDS011;6623;52.120;8.660;2022-12-22T08:35:12;14.40;;;10.23;;
13114;SDS011;6623;52.120;8.660;2022-12-22T08:37:38;15.20;;;10.23;;
13114;SDS011;6623;52.120;8.660;2022-12-22T08:40:07;13.83;;;10.53;;
13114;SDS011;6623;52.120;8.660;2022-12-22T08:42:37;16.43;;;11.57;;
13114;SDS011;6623;52.120;8.660;2022-12-22T08:45:03;17.80;;;12.00;;
13114;SDS011;6623;52.120;8.660;2022-12-22T08:47:30;20.53;;;11.60;;
13114;SDS011;6623;52.120;8.660;2022-12-22T08:49:55;18.13;;;11.83;;
13114;SDS011;6623;52.120;8.660;2022-12-22T08:52:21;18.73;;;13.03;;
13114;SDS011;6623;52.120;8.660;2022-12-22T08:54:46;16.80;;;11.87;;
13114;SDS011;6623;52.120;8.660;2022-12-22T08:57:12;20.53;;;12.87;;
13114;SDS011;6623;52.120;8.660;2022-12-22T08:59:37;22.33;;;13.63;;
13114;SDS011;6623;52.120;8.660;2022-12-22T09:02:03;20.60;;;13.13;;
13114;SDS011;6623;52.120;8.660;2022-12-22T09:04:29;21.73;;;13.13;;
13114;SDS011;6623;52.120;8.660;2022-12-22T09:06:56;18.83;;;13.60;;
13114;SDS011;6623;52.120;8.660;2022-12-22T09:09:22;18.83;;;12.17;;
13114;SDS011;6623;52.120;8.660;2022-12-22T09:11:48;15.03;;;10.60;;
13114;SDS011;6623;52.120;8.660;2022-12-22T09:14:14;15.33;;;10.50;;
13114;SDS011;6623;52.120;8.660;2022-12-22T09:16:40;13.73;;;10.20;;
13114;SDS011;6623;52.120;8.660;2022-12-22T09:19:06;13.10;;;10.20;;
13114;SDS011;6623;52.120;8.660;2022-12-22T09:21:31;10.87;;;9.20;;
13114;SDS011;6623;52.120;8.660;2022-12-22T09:23:58;10.53;;;9.03;;
13114;SDS011;6623;52.120;8.660;2022-12-22T09:26:24;10.30;;;8.73;;
13114;SDS011;6623;52.120;8.660;2022-12-22T09:28:51;10.83;;;9.03;;
13114;SDS011;6623;52.120;8.660;2022-12-22T09:31:18;11.60;;;9.10;;
13114;SDS011;6623;52.120;8.660;2022-12-22T09:33:48;10.43;;;8.80;;
13114;SDS011;6623;52.120;8.660;2022-12-22T09:36:14;10.13;;;9.00;;
13114;SDS011;6623;52.120;8.660;2022-12-22T09:38:43;10.73;;;8.90;;
13114;SDS011;6623;52.120;8.660;2022-12-22T09:41:17;11.87;;;9.77;;
13114;SDS011;6623;52.120;8.660;2022-12-22T09:43:55;15.90;;;10.50;;
13114;SDS011;6623;52.120;8.660;2022-12-22T09:46:26;12.87;;;9.33;;
13114;SDS011;6623;52.120;8.660;2022-12-22T09:48:54;14.77;;;10.40;;
13114;SDS011;6623;52.120;8.660;2022-12-22T09:51:20;15.37;;;10.30;;
13114;SDS011;6623;52.120;8.660;2022-12-22T09:53:50;15.27;;;10.23;;
13114;SDS011;6623;52.120;8.660;2022-12-22T09:56:18;14.43;;;10.00;;
13114;SDS011;6623;52.120;8.660;2022-12-22T09:58:44;14.63;;;9.17;;
13114;SDS011;6623;52.120;8.660;2022-12-22T10:06:39;14.87;;;9.53;;
13114;SDS011;6623;52.120;8.660;2022-12-22T10:09:28;16.00;;;9.80;;
13114;SDS011;6623;52.120;8.660;2022-12-22T10:11:56;17.40;;;10.30;;
13114;SDS011;6623;52.120;8.660;2022-12-22T10:14:34;18.30;;;10.60;;
13114;SDS011;6623;52.120;8.660;2022-12-22T10:17:18;18.60;;;11.33;;
13114;SDS011;6623;52.120;8.660;2022-12-22T10:19:54;23.47;;;11.90;;
13114;SDS011;6623;52.120;8.660;2022-12-22T10:25:34;26.27;;;15.03;;
13114;SDS011;6623;52.120;8.660;2022-12-22T10:28:09;24.77;;;14.73;;
13114;SDS011;6623;52.120;8.660;2022-12-22T10:30:41;19.83;;;11.90;;
13114;SDS011;6623;52.120;8.660;2022-12-22T10:35:51;20.53;;;12.47;;
13114;SDS011;6623;52.120;8.660;2022-12-22T10:38:33;18.43;;;11.33;;
13114;SDS011;6623;52.120;8.660;2022-12-22T10:41:11;18.73;;;11.80;;
13114;SDS011;6623;52.120;8.660;2022-12-22T10:43:44;19.27;;;10.97;;
13114;SDS011;6623;52.120;8.660;2022-12-22T10:46:15;16.83;;;10.63;;
13114;SDS011;6623;52.120;8.660;2022-12-22T10:48:42;15.40;;;10.50;;
13114;SDS011;6623;52.120;8.660;2022-12-22T10:51:08;14.90;;;10.67;;
13114;SDS011;6623;52.120;8.660;2022-12-22T10:56:23;16.77;;;10.20;;
13114;SDS011;6623;52.120;8.660;2022-12-22T10:58:52;14.77;;;9.83;;
13114;SDS011;6623;52.120;8.660;2022-12-22T11:01:27;16.43;;;10.10;;
13114;SDS011;6623;52.120;8.660;2022-12-22T11:06:41;11.50;;;7.73;;
13114;SDS011;6623;52.120;8.660;2022-12-22T11:09:11;14.33;;;9.23;;
13114;SDS011;6623;52.120;8.660;2022-12-22T11:14:13;14.90;;;9.83;;
13114;SDS011;6623;52.120;8.660;2022-12-22T11:17:16;14.50;;;10.10;;
13114;SDS011;6623;52.120;8.660;2022-12-22T11:19:42;15.73;;;9.50;;
13114;SDS011;6623;52.120;8.660;2022-12-22T11:26:03;14.60;;;9.53;;
13114;SDS011;6623;52.120;8.660;2022-12-22T11:28:45;13.13;;;9.97;;
13114;SDS011;6623;52.120;8.660;2022-12-22T11:31:42;12.03;;;9.30;;
13114;SDS011;6623;52.120;8.660;2022-12-22T11:37:00;11.67;;;9.07;;
13114;SDS011;6623;52.120;8.660;2022-12-22T11:39:51;12.23;;;8.93;;
13114;SDS011;6623;52.120;8.660;2022-12-22T11:42:48;11.53;;;9.10;;
13114;SDS011;6623;52.120;8.660;2022-12-22T11:45:46;13.13;;;9.17;;
13114;SDS011;6623;52.120;8.660;2022-12-22T12:05:57;12.07;;;9.03;;
13114;SDS011;6623;52.120;8.660;2022-12-22T12:08:12;11.83;;;9.33;;
13114;SDS011;6623;52.120;8.660;2022-12-22T12:19:44;13.00;;;9.20;;
13114;SDS011;6623;52.120;8.660;2022-12-22T12:22:33;11.77;;;9.10;;
13114;SDS011;6623;52.120;8.660;2022-12-22T12:25:11;10.63;;;7.70;;
13114;SDS011;6623;52.120;8.660;2022-12-22T12:28:31;10.30;;;7.40;;
13114;SDS011;6623;52.120;8.660;2022-12-22T12:31:11;10.37;;;7.80;;
13114;SDS011;6623;52.120;8.660;2022-12-22T12:33:51;10.60;;;8.00;;
13114;SDS011;6623;52.120;8.660;2022-12-22T12:36:40;11.23;;;8.73;;
13114;SDS011;6623;52.120;8.660;2022-12-22T12:39:39;12.60;;;9.00;;
13114;SDS011;6623;52.120;8.660;2022-12-22T12:42:29;11.23;;;8.17;;
13114;SDS011;6623;52.120;8.660;2022-12-22T12:44:58;10.00;;;7.43;;
13114;SDS011;6623;52.120;8.660;2022-12-22T12:47:30;10.30;;;7.17;;
13114;SDS011;6623;52.120;8.660;2022-12-22T12:49:58;8.63;;;6.37;;
13114;SDS011;6623;52.120;8.660;2022-12-22T12:57:49;8.10;;;6.27;;
13114;SDS011;6623;52.120;8.660;2022-12-22T13:02:57;9.57;;;6.70;;
13114;SDS011;6623;52.120;8.660;2022-12-22T13:05:59;10.70;;;6.23;;
13114;SDS011;6623;52.120;8.660;2022-12-22T13:08:27;10.57;;;7.67;;
13114;SDS011;6623;52.120;8.660;2022-12-22T13:23:49;9.00;;;7.20;;
13114;SDS011;6623;52.120;8.660;2022-12-22T13:26:22;9.93;;;6.47;;
13114;SDS011;6623;52.120;8.660;2022-12-22T13:28:55;9.83;;;6.80;;
13114;SDS011;6623;52.120;8.660;2022-12-22T13:31:24;10.03;;;7.13;;
13114;SDS011;6623;52.120;8.660;2022-12-22T13:34:06;8.03;;;6.70;;
13114;SDS011;6623;52.120;8.660;2022-12-22T13:36:53;10.67;;;6.70;;
13114;SDS011;6623;52.120;8.660;2022-12-22T13:39:22;10.70;;;7.47;;
13114;SDS011;6623;52.120;8.660;2022-12-22T13:41:48;9.60;;;7.23;;
13114;SDS011;6623;52.120;8.660;2022-12-22T13:44:19;8.33;;;6.83;;
13114;SDS011;6623;52.120;8.660;2022-12-22T13:47:02;8.67;;;6.57;;
13114;SDS011;6623;52.120;8.660;2022-12-22T13:49:30;10.13;;;6.57;;
13114;SDS011;6623;52.120;8.660;2022-12-22T13:51:58;10.20;;;6.90;;
13114;SDS011;6623;52.120;8.660;2022-12-22T13:54:29;9.73;;;6.27;;
13114;SDS011;6623;52.120;8.660;2022-12-22T13:56:57;14.37;;;7.07;;
13114;SDS011;6623;52.120;8.660;2022-12-22T13:59:29;10.83;;;7.13;;
13114;SDS011;6623;52.120;8.660;2022-12-22T14:01:57;11.63;;;7.40;;
13114;SDS011;6623;52.120;8.660;2022-12-22T14:04:24;11.10;;;7.40;;
13114;SDS011;6623;52.120;8.660;2022-12-22T14:06:50;10.23;;;7.47;;
13114;SDS011;6623;52.120;8.660;2022-12-22T14:09:20;10.77;;;7.10;;
13114;SDS011;6623;52.120;8.660;2022-12-22T14:11:48;11.20;;;7.27;;
13114;SDS011;6623;52.120;8.660;2022-12-22T14:14:36;10.50;;;7.00;;
13114;SDS011;6623;52.120;8.660;2022-12-22T14:17:03;11.23;;;7.50;;
13114;SDS011;6623;52.120;8.660;2022-12-22T14:19:41;10.53;;;7.60;;
13114;SDS011;6623;52.120;8.660;2022-12-22T14:22:13;11.40;;;7.60;;
13114;SDS011;6623;52.120;8.660;2022-12-22T14:24:47;10.20;;;7.07;;
13114;SDS011;6623;52.120;8.660;2022-12-22T14:27:38;11.90;;;7.73;;
13114;SDS011;6623;52.120;8.660;2022-12-22T14:30:14;10.77;;;7.03;;
13114;SDS011;6623;52.120;8.660;2022-12-22T14:32:49;11.93;;;7.43;;
13114;SDS011;6623;52.120;8.660;2022-12-22T14:37:52;12.93;;;7.43;;
13114;SDS011;6623;52.120;8.660;2022-12-22T14:40:30;12.83;;;8.00;;
13114;SDS011;6623;52.120;8.660;2022-12-22T14:43:05;11.50;;;7.77;;
13114;SDS011;6623;52.120;8.660;2022-12-22T14:45:42;11.60;;;7.40;;
13114;SDS011;6623;52.120;8.660;2022-12-22T14:48:08;11.60;;;7.27;;
13114;SDS011;6623;52.120;8.660;2022-12-22T14:50:51;11.03;;;7.23;;
13114;SDS011;6623;52.120;8.660;2022-12-22T14:53:26;11.40;;;7.43;;
13114;SDS011;6623;52.120;8.660;2022-12-22T14:59:25;12.13;;;8.00;;
13114;SDS011;6623;52.120;8.660;2022-12-22T15:02:03;11.00;;;8.03;;
13114;SDS011;6623;52.120;8.660;2022-12-22T15:05:05;12.70;;;8.90;;
13114;SDS011;6623;52.120;8.660;2022-12-22T15:07:48;14.03;;;9.50;;
13114;SDS011;6623;52.120;8.660;2022-12-22T15:10:17;14.73;;;9.83;;
13114;SDS011;6623;52.120;8.660;2022-12-22T15:12:43;14.77;;;10.07;;
13114;SDS011;6623;52.120;8.660;2022-12-22T15:15:25;15.30;;;10.37;;
13114;SDS011;6623;52.120;8.660;2022-12-22T15:17:57;16.63;;;10.07;;
13114;SDS011;6623;52.120;8.660;2022-12-22T15:20:29;14.90;;;10.00;;
13114;SDS011;6623;52.120;8.660;2022-12-22T15:22:55;16.57;;;10.80;;
13114;SDS011;6623;52.120;8.660;2022-12-22T15:25:21;15.33;;;10.60;;
13114;SDS011;6623;52.120;8.660;2022-12-22T15:30:48;16.00;;;10.77;;
13114;SDS011;6623;52.120;8.660;2022-12-22T15:33:23;14.17;;;10.77;;
13114;SDS011;6623;52.120;8.660;2022-12-22T15:35:49;16.20;;;11.53;;
13114;SDS011;6623;52.120;8.660;2022-12-22T15:38:16;16.30;;;11.23;;
13114;SDS011;6623;52.120;8.660;2022-12-22T15:40:46;15.03;;;10.90;;
13114;SDS011;6623;52.120;8.660;2022-12-22T15:46:37;16.57;;;11.73;;
13114;SDS011;6623;52.120;8.660;2022-12-22T15:49:12;16.90;;;11.17;;
13114;SDS011;6623;52.120;8.660;2022-12-22T15:52:18;17.73;;;11.07;;
13114;SDS011;6623;52.120;8.660;2022-12-22T15:54:47;18.53;;;10.97;;
13114;SDS011;6623;52.120;8.660;2022-12-22T16:05:52;17.13;;;10.37;;
13114;SDS011;6623;52.120;8.660;2022-12-22T16:30:35;16.67;;;10.57;;
13114;SDS011;6623;52.120;8.660;2022-12-22T16:33:04;17.87;;;10.97;;
13114;SDS011;6623;52.120;8.660;2022-12-22T16:35:32;21.87;;;12.03;;
13114;SDS011;6623;52.120;8.660;2022-12-22T16:38:10;21.37;;;11.37;;
13114;SDS011;6623;52.120;8.660;2022-12-22T16:40:42;20.37;;;11.73;;
13114;SDS011;6623;52.120;8.660;2022-12-22T16:46:02;19.93;;;12.53;;
13114;SDS011;6623;52.120;8.660;2022-12-22T16:48:49;21.53;;;12.47;;
13114;SDS011;6623;52.120;8.660;2022-12-22T16:51:21;24.87;;;12.77;;
13114;SDS011;6623;52.120;8.660;2022-12-22T16:53:55;20.57;;;12.23;;
13114;SDS011;6623;52.120;8.660;2022-12-22T16:56:26;20.57;;;12.67;;
13114;SDS011;6623;52.120;8.660;2022-12-22T16:58:54;24.40;;;12.83;;
13114;SDS011;6623;52.120;8.660;2022-12-22T17:04:42;24.17;;;13.20;;
13114;SDS011;6623;52.120;8.660;2022-12-22T17:07:15;19.97;;;13.00;;
13114;SDS011;6623;52.120;8.660;2022-12-22T17:09:46;20.40;;;13.40;;
13114;SDS011;6623;52.120;8.660;2022-12-22T17:12:22;24.07;;;13.67;;
13114;SDS011;6623;52.120;8.660;2022-12-22T17:15:17;32.43;;;21.17;;
13114;SDS011;6623;52.120;8.660;2022-12-22T17:17:44;24.27;;;16.43;;
13114;SDS011;6623;52.120;8.660;2022-12-22T17:20:27;26.63;;;17.30;;
13114;SDS011;6623;52.120;8.660;2022-12-22T17:23:00;26.83;;;17.07;;
13114;SDS011;6623;52.120;8.660;2022-12-22T17:25:50;27.30;;;17.90;;
13114;SDS011;6623;52.120;8.660;2022-12-22T17:28:18;23.43;;;15.60;;
13114;SDS011;6623;52.120;8.660;2022-12-22T17:30:44;26.60;;;15.20;;
13114;SDS011;6623;52.120;8.660;2022-12-22T17:33:16;22.20;;;15.33;;
13114;SDS011;6623;52.120;8.660;2022-12-22T17:36:00;19.13;;;15.23;;
13114;SDS011;6623;52.120;8.660;2022-12-22T17:43:51;20.90;;;14.93;;
13114;SDS011;6623;52.120;8.660;2022-12-22T17:46:17;22.77;;;15.23;;
13114;SDS011;6623;52.120;8.660;2022-12-22T17:49:06;21.77;;;15.77;;
13114;SDS011;6623;52.120;8.660;2022-12-22T17:51:49;24.40;;;16.87;;
13114;SDS011;6623;52.120;8.660;2022-12-22T17:54:22;24.60;;;17.10;;